sensor_id;sensor_type;location;lat;lon;timestamp;temperature;humidity
18948;DHT22;9607;51.600;7.558;2024-03-22T00:02:10;10.50;99.90
18948;DHT22;9607;51.600;7.558;2024-03-22T00:04:36;10.50;99.90
18948;DHT22;9607;51.600;7.558;2024-03-22T00:07:03;10.50;99.90
18948;DHT22;9607;51.600;7.558;2024-03-22T00:09:29;10.50;99.90
18948;DHT22;9607;51.600;7.558;2024-03-22T00:11:56;10.40;99.90
18948;DHT22;9607;51.600;7.558;2024-03-22T00:14:23;10.40;99.90
18948;DHT22;9607;51.600;7.558;2024-03-22T00:16:50;10.40;99.90
18948;DHT22;9607;51.600;7.558;2024-03-22T00:19:16;10.40;99.90
18948;DHT22;9607;51.600;7.558;2024-03-22T00:21:43;10.40;99.90
18948;DHT22;9607;51.600;7.558;2024-03-22T00:24:09;10.40;99.90
18948;DHT22;9607;51.600;7.558;2024-03-22T00:26:36;10.40;99.90
18948;DHT22;9607;51.600;7.558;2024-03-22T00:29:02;10.40;99.90
18948;DHT22;9607;51.600;7.558;2024-03-22T00:31:30;10.30;99.90
18948;DHT22;9607;51.600;7.558;2024-03-22T00:33:56;10.40;99.90
18948;DHT22;9607;51.600;7.558;2024-03-22T00:36:23;10.40;99.90
18948;DHT22;9607;51.600;7.558;2024-03-22T00:38:49;10.40;99.90
18948;DHT22;9607;51.600;7.558;2024-03-22T00:41:17;10.40;99.90
18948;DHT22;9607;51.600;7.558;2024-03-22T00:43:43;10.30;99.90
18948;DHT22;9607;51.600;7.558;2024-03-22T00:46:10;10.30;99.90
18948;DHT22;9607;51.600;7.558;2024-03-22T00:48:37;10.40;99.90
18948;DHT22;9607;51.600;7.558;2024-03-22T00:51:04;10.40;99.90
18948;DHT22;9607;51.600;7.558;2024-03-22T00:53:30;10.40;99.90
18948;DHT22;9607;51.600;7.558;2024-03-22T00:55:57;10.40;99.90
18948;DHT22;9607;51.600;7.558;2024-03-22T00:58:25;10.50;99.90
18948;DHT22;9607;51.600;7.558;2024-03-22T01:00:52;10.50;99.90
18948;DHT22;9607;51.600;7.558;2024-03-22T01:03:18;10.50;99.90
18948;DHT22;9607;51.600;7.558;2024-03-22T01:05:46;10.60;99.90
18948;DHT22;9607;51.600;7.558;2024-03-22T01:08:12;10.60;99.90
18948;DHT22;9607;51.600;7.558;2024-03-22T01:10:39;10.60;99.90
18948;DHT22;9607;51.600;7.558;2024-03-22T01:13:05;10.60;99.90
18948;DHT22;9607;51.600;7.558;2024-03-22T01:15:32;10.70;99.90
18948;DHT22;9607;51.600;7.558;2024-03-22T01:17:59;10.70;99.90
18948;DHT22;9607;51.600;7.558;2024-03-22T01:20:26;10.70;99.90
18948;DHT22;9607;51.600;7.558;2024-03-22T01:22:54;10.80;99.90
18948;DHT22;9607;51.600;7.558;2024-03-22T01:25:21;10.90;99.90
18948;DHT22;9607;51.600;7.558;2024-03-22T01:27:46;10.90;99.90
18948;DHT22;9607;51.600;7.558;2024-03-22T01:30:13;10.90;99.90
18948;DHT22;9607;51.600;7.558;2024-03-22T01:32:39;10.90;99.90
18948;DHT22;9607;51.600;7.558;2024-03-22T01:35:06;11.00;99.90
18948;DHT22;9607;51.600;7.558;2024-03-22T01:37:32;11.00;99.90
18948;DHT22;9607;51.600;7.558;2024-03-22T01:40:01;11.00;99.90
18948;DHT22;9607;51.600;7.558;2024-03-22T01:42:28;11.00;99.90
18948;DHT22;9607;51.600;7.558;2024-03-22T01:44:55;11.10;99.90
18948;DHT22;9607;51.600;7.558;2024-03-22T01:47:21;11.10;99.90
18948;DHT22;9607;51.600;7.558;2024-03-22T01:49:49;11.10;99.90
18948;DHT22;9607;51.600;7.558;2024-03-22T01:52:16;11.10;99.90
18948;DHT22;9607;51.600;7.558;2024-03-22T01:54:43;11.20;99.90
18948;DHT22;9607;51.600;7.558;2024-03-22T01:57:10;11.20;99.90
18948;DHT22;9607;51.600;7.558;2024-03-22T01:59:37;11.20;99.90
18948;DHT22;9607;51.600;7.558;2024-03-22T02:02:04;11.30;99.90
18948;DHT22;9607;51.600;7.558;2024-03-22T02:04:31;11.30;99.90
18948;DHT22;9607;51.600;7.558;2024-03-22T02:06:57;11.40;99.90
18948;DHT22;9607;51.600;7.558;2024-03-22T02:09:24;11.30;99.90
18948;DHT22;9607;51.600;7.558;2024-03-22T02:11:51;11.30;99.90
18948;DHT22;9607;51.600;7.558;2024-03-22T02:14:19;11.30;99.90
18948;DHT22;9607;51.600;7.558;2024-03-22T02:16:45;11.40;99.90
18948;DHT22;9607;51.600;7.558;2024-03-22T02:19:12;11.40;99.90
18948;DHT22;9607;51.600;7.558;2024-03-22T02:21:39;11.40;99.90
18948;DHT22;9607;51.600;7.558;2024-03-22T02:24:07;11.50;99.90
18948;DHT22;9607;51.600;7.558;2024-03-22T02:26:33;11.50;99.90
18948;DHT22;9607;51.600;7.558;2024-03-22T02:29:00;11.50;99.90
18948;DHT22;9607;51.600;7.558;2024-03-22T02:31:26;11.50;99.90
18948;DHT22;9607;51.600;7.558;2024-03-22T02:33:53;11.50;99.90
18948;DHT22;9607;51.600;7.558;2024-03-22T02:36:19;11.50;99.90
18948;DHT22;9607;51.600;7.558;2024-03-22T02:38:45;11.60;99.90
18948;DHT22;9607;51.600;7.558;2024-03-22T02:41:12;11.60;99.90
18948;DHT22;9607;51.600;7.558;2024-03-22T02:43:39;11.60;99.90
18948;DHT22;9607;51.600;7.558;2024-03-22T02:46:05;11.60;99.90
18948;DHT22;9607;51.600;7.558;2024-03-22T02:48:32;11.70;99.90
18948;DHT22;9607;51.600;7.558;2024-03-22T02:50:58;11.60;99.90
18948;DHT22;9607;51.600;7.558;2024-03-22T02:53:25;11.70;99.90
18948;DHT22;9607;51.600;7.558;2024-03-22T02:55:53;11.70;99.90
18948;DHT22;9607;51.600;7.558;2024-03-22T02:58:20;11.70;99.90
18948;DHT22;9607;51.600;7.558;2024-03-22T03:00:48;11.70;99.90
18948;DHT22;9607;51.600;7.558;2024-03-22T03:03:14;11.70;99.90
18948;DHT22;9607;51.600;7.558;2024-03-22T03:05:42;11.70;99.90
18948;DHT22;9607;51.600;7.558;2024-03-22T03:08:07;11.70;99.90
18948;DHT22;9607;51.600;7.558;2024-03-22T03:10:35;11.70;99.90
18948;DHT22;9607;51.600;7.558;2024-03-22T03:13:01;11.70;99.90
18948;DHT22;9607;51.600;7.558;2024-03-22T03:15:30;11.70;99.90
18948;DHT22;9607;51.600;7.558;2024-03-22T03:17:56;11.70;99.90
18948;DHT22;9607;51.600;7.558;2024-03-22T03:20:25;11.70;99.90
18948;DHT22;9607;51.600;7.558;2024-03-22T03:22:52;11.70;99.90
18948;DHT22;9607;51.600;7.558;2024-03-22T03:25:19;11.70;99.90
18948;DHT22;9607;51.600;7.558;2024-03-22T03:27:45;11.70;99.90
18948;DHT22;9607;51.600;7.558;2024-03-22T03:30:12;11.80;99.90
18948;DHT22;9607;51.600;7.558;2024-03-22T03:32:39;11.80;99.90
18948;DHT22;9607;51.600;7.558;2024-03-22T03:35:06;11.80;99.90
18948;DHT22;9607;51.600;7.558;2024-03-22T03:37:35;11.80;99.90
18948;DHT22;9607;51.600;7.558;2024-03-22T03:40:04;11.80;99.90
18948;DHT22;9607;51.600;7.558;2024-03-22T03:42:30;11.80;99.90
18948;DHT22;9607;51.600;7.558;2024-03-22T03:44:58;11.80;99.90
18948;DHT22;9607;51.600;7.558;2024-03-22T03:47:24;11.80;99.90
18948;DHT22;9607;51.600;7.558;2024-03-22T03:49:52;11.90;99.90
18948;DHT22;9607;51.600;7.558;2024-03-22T03:52:18;11.80;99.90
18948;DHT22;9607;51.600;7.558;2024-03-22T03:54:45;11.90;99.90
18948;DHT22;9607;51.600;7.558;2024-03-22T03:57:10;11.70;99.90
18948;DHT22;9607;51.600;7.558;2024-03-22T03:59:38;11.70;99.90
18948;DHT22;9607;51.600;7.558;2024-03-22T04:02:04;11.70;99.90
18948;DHT22;9607;51.600;7.558;2024-03-22T04:04:31;11.60;99.90
18948;DHT22;9607;51.600;7.558;2024-03-22T04:06:58;11.50;99.90
18948;DHT22;9607;51.600;7.558;2024-03-22T04:09:25;11.50;99.90
18948;DHT22;9607;51.600;7.558;2024-03-22T04:11:51;11.50;99.90
18948;DHT22;9607;51.600;7.558;2024-03-22T04:14:18;11.40;99.90
18948;DHT22;9607;51.600;7.558;2024-03-22T04:16:44;11.40;99.90
18948;DHT22;9607;51.600;7.558;2024-03-22T04:19:11;11.40;99.90
18948;DHT22;9607;51.600;7.558;2024-03-22T04:21:37;11.30;99.90
18948;DHT22;9607;51.600;7.558;2024-03-22T04:24:05;11.40;99.90
18948;DHT22;9607;51.600;7.558;2024-03-22T04:26:31;11.30;99.90
18948;DHT22;9607;51.600;7.558;2024-03-22T04:28:59;11.30;99.90
18948;DHT22;9607;51.600;7.558;2024-03-22T04:31:24;11.20;99.90
18948;DHT22;9607;51.600;7.558;2024-03-22T04:33:51;11.20;99.90
18948;DHT22;9607;51.600;7.558;2024-03-22T04:36:18;11.30;99.90
18948;DHT22;9607;51.600;7.558;2024-03-22T04:38:45;11.30;99.90
18948;DHT22;9607;51.600;7.558;2024-03-22T04:41:13;11.30;99.90
18948;DHT22;9607;51.600;7.558;2024-03-22T04:43:39;11.30;99.90
18948;DHT22;9607;51.600;7.558;2024-03-22T04:46:06;11.30;99.90
18948;DHT22;9607;51.600;7.558;2024-03-22T04:48:31;11.30;99.90
18948;DHT22;9607;51.600;7.558;2024-03-22T04:50:58;11.40;99.90
18948;DHT22;9607;51.600;7.558;2024-03-22T04:53:24;11.50;99.90
18948;DHT22;9607;51.600;7.558;2024-03-22T04:55:51;11.40;99.90
18948;DHT22;9607;51.600;7.558;2024-03-22T04:58:19;11.50;99.90
18948;DHT22;9607;51.600;7.558;2024-03-22T05:00:47;11.50;99.90
18948;DHT22;9607;51.600;7.558;2024-03-22T05:03:13;11.50;99.90
18948;DHT22;9607;51.600;7.558;2024-03-22T05:05:40;11.70;99.90
18948;DHT22;9607;51.600;7.558;2024-03-22T05:08:06;11.60;99.90
18948;DHT22;9607;51.600;7.558;2024-03-22T05:10:34;11.60;99.90
18948;DHT22;9607;51.600;7.558;2024-03-22T05:13:00;11.60;99.90
18948;DHT22;9607;51.600;7.558;2024-03-22T05:15:28;11.70;99.90
18948;DHT22;9607;51.600;7.558;2024-03-22T05:17:56;11.70;99.90
18948;DHT22;9607;51.600;7.558;2024-03-22T05:20:23;11.70;99.90
18948;DHT22;9607;51.600;7.558;2024-03-22T05:22:49;11.70;99.90
18948;DHT22;9607;51.600;7.558;2024-03-22T05:25:16;11.70;99.90
18948;DHT22;9607;51.600;7.558;2024-03-22T05:27:42;11.70;99.90
18948;DHT22;9607;51.600;7.558;2024-03-22T05:30:10;11.70;99.90
18948;DHT22;9607;51.600;7.558;2024-03-22T05:32:41;11.70;99.90
18948;DHT22;9607;51.600;7.558;2024-03-22T05:35:08;11.70;99.90
18948;DHT22;9607;51.600;7.558;2024-03-22T05:37:34;11.80;99.90
18948;DHT22;9607;51.600;7.558;2024-03-22T05:40:03;11.80;99.90
18948;DHT22;9607;51.600;7.558;2024-03-22T05:42:30;11.80;99.90
18948;DHT22;9607;51.600;7.558;2024-03-22T05:44:57;11.80;99.90
18948;DHT22;9607;51.600;7.558;2024-03-22T05:47:23;11.80;99.90
18948;DHT22;9607;51.600;7.558;2024-03-22T05:49:51;11.90;99.90
18948;DHT22;9607;51.600;7.558;2024-03-22T05:52:18;11.90;99.90
18948;DHT22;9607;51.600;7.558;2024-03-22T05:54:44;12.00;99.90
18948;DHT22;9607;51.600;7.558;2024-03-22T05:57:11;12.00;99.90
18948;DHT22;9607;51.600;7.558;2024-03-22T05:59:38;12.10;99.90
18948;DHT22;9607;51.600;7.558;2024-03-22T06:02:05;12.10;99.90
18948;DHT22;9607;51.600;7.558;2024-03-22T06:04:31;12.20;99.90
18948;DHT22;9607;51.600;7.558;2024-03-22T06:06:59;12.20;99.90
18948;DHT22;9607;51.600;7.558;2024-03-22T06:09:26;12.20;99.90
18948;DHT22;9607;51.600;7.558;2024-03-22T06:12:03;12.30;99.90
18948;DHT22;9607;51.600;7.558;2024-03-22T06:14:30;12.30;99.90
18948;DHT22;9607;51.600;7.558;2024-03-22T06:16:56;12.30;99.90
18948;DHT22;9607;51.600;7.558;2024-03-22T06:19:23;12.40;99.90
18948;DHT22;9607;51.600;7.558;2024-03-22T06:21:49;12.40;99.90
18948;DHT22;9607;51.600;7.558;2024-03-22T06:24:17;12.50;99.90
18948;DHT22;9607;51.600;7.558;2024-03-22T06:26:43;12.50;99.90
18948;DHT22;9607;51.600;7.558;2024-03-22T06:29:10;12.60;99.90
18948;DHT22;9607;51.600;7.558;2024-03-22T06:31:35;12.60;99.90
18948;DHT22;9607;51.600;7.558;2024-03-22T06:34:02;12.80;99.90
18948;DHT22;9607;51.600;7.558;2024-03-22T06:36:29;12.80;99.90
18948;DHT22;9607;51.600;7.558;2024-03-22T06:38:56;12.90;99.90
18948;DHT22;9607;51.600;7.558;2024-03-22T06:41:24;12.90;99.90
18948;DHT22;9607;51.600;7.558;2024-03-22T06:43:51;13.00;99.90
18948;DHT22;9607;51.600;7.558;2024-03-22T06:46:17;13.00;99.90
18948;DHT22;9607;51.600;7.558;2024-03-22T06:48:45;13.00;99.90
18948;DHT22;9607;51.600;7.558;2024-03-22T06:51:11;13.10;99.90
18948;DHT22;9607;51.600;7.558;2024-03-22T06:53:39;13.00;99.90
18948;DHT22;9607;51.600;7.558;2024-03-22T06:56:05;13.10;99.90
18948;DHT22;9607;51.600;7.558;2024-03-22T06:58:36;13.10;99.90
18948;DHT22;9607;51.600;7.558;2024-03-22T07:01:02;13.10;99.90
18948;DHT22;9607;51.600;7.558;2024-03-22T07:03:29;13.20;99.90
18948;DHT22;9607;51.600;7.558;2024-03-22T07:05:55;13.30;99.90
18948;DHT22;9607;51.600;7.558;2024-03-22T07:08:23;13.20;99.90
18948;DHT22;9607;51.600;7.558;2024-03-22T07:10:49;13.30;99.90
18948;DHT22;9607;51.600;7.558;2024-03-22T07:13:16;13.30;99.90
18948;DHT22;9607;51.600;7.558;2024-03-22T07:15:45;13.40;99.90
18948;DHT22;9607;51.600;7.558;2024-03-22T07:18:13;13.40;99.90
18948;DHT22;9607;51.600;7.558;2024-03-22T07:20:39;13.50;99.90
18948;DHT22;9607;51.600;7.558;2024-03-22T07:23:06;13.50;99.90
18948;DHT22;9607;51.600;7.558;2024-03-22T07:25:32;13.50;99.90
18948;DHT22;9607;51.600;7.558;2024-03-22T07:27:59;13.60;99.90
18948;DHT22;9607;51.600;7.558;2024-03-22T07:30:25;13.60;99.90
18948;DHT22;9607;51.600;7.558;2024-03-22T07:32:53;13.70;99.90
18948;DHT22;9607;51.600;7.558;2024-03-22T07:35:19;13.80;99.90
18948;DHT22;9607;51.600;7.558;2024-03-22T07:37:45;13.90;99.90
18948;DHT22;9607;51.600;7.558;2024-03-22T07:40:11;14.00;99.90
18948;DHT22;9607;51.600;7.558;2024-03-22T07:42:38;14.00;99.90
18948;DHT22;9607;51.600;7.558;2024-03-22T07:45:05;14.10;99.90
18948;DHT22;9607;51.600;7.558;2024-03-22T07:47:32;14.10;99.90
18948;DHT22;9607;51.600;7.558;2024-03-22T07:49:59;14.20;99.90
18948;DHT22;9607;51.600;7.558;2024-03-22T07:52:26;14.30;99.90
18948;DHT22;9607;51.600;7.558;2024-03-22T07:54:52;14.40;99.90
18948;DHT22;9607;51.600;7.558;2024-03-22T07:57:19;14.40;99.90
18948;DHT22;9607;51.600;7.558;2024-03-22T07:59:46;14.50;99.90
18948;DHT22;9607;51.600;7.558;2024-03-22T08:02:13;14.40;99.90
18948;DHT22;9607;51.600;7.558;2024-03-22T08:04:38;14.40;99.90
18948;DHT22;9607;51.600;7.558;2024-03-22T08:07:07;14.40;99.90
18948;DHT22;9607;51.600;7.558;2024-03-22T08:09:33;14.40;99.90
18948;DHT22;9607;51.600;7.558;2024-03-22T08:12:00;14.40;99.90
18948;DHT22;9607;51.600;7.558;2024-03-22T08:14:26;14.50;99.90
18948;DHT22;9607;51.600;7.558;2024-03-22T08:16:53;14.50;99.90
18948;DHT22;9607;51.600;7.558;2024-03-22T08:19:19;14.60;99.90
18948;DHT22;9607;51.600;7.558;2024-03-22T08:21:45;14.70;99.90
18948;DHT22;9607;51.600;7.558;2024-03-22T08:24:13;14.70;99.90
18948;DHT22;9607;51.600;7.558;2024-03-22T08:26:40;14.80;99.90
18948;DHT22;9607;51.600;7.558;2024-03-22T08:29:05;14.80;99.90
18948;DHT22;9607;51.600;7.558;2024-03-22T08:31:32;14.90;99.90
18948;DHT22;9607;51.600;7.558;2024-03-22T08:33:58;14.90;99.90
18948;DHT22;9607;51.600;7.558;2024-03-22T08:36:28;15.00;99.90
18948;DHT22;9607;51.600;7.558;2024-03-22T08:38:53;14.90;99.90
18948;DHT22;9607;51.600;7.558;2024-03-22T08:41:22;14.90;99.90
18948;DHT22;9607;51.600;7.558;2024-03-22T08:43:47;14.90;99.90
18948;DHT22;9607;51.600;7.558;2024-03-22T08:46:14;14.80;99.90
18948;DHT22;9607;51.600;7.558;2024-03-22T08:48:40;14.90;99.90
18948;DHT22;9607;51.600;7.558;2024-03-22T08:51:10;14.90;99.90
18948;DHT22;9607;51.600;7.558;2024-03-22T08:53:36;14.80;99.90
18948;DHT22;9607;51.600;7.558;2024-03-22T08:56:03;14.90;99.90
18948;DHT22;9607;51.600;7.558;2024-03-22T08:58:30;15.00;99.90
18948;DHT22;9607;51.600;7.558;2024-03-22T09:00:58;15.10;99.90
18948;DHT22;9607;51.600;7.558;2024-03-22T09:03:24;15.20;99.90
18948;DHT22;9607;51.600;7.558;2024-03-22T09:05:52;15.30;99.90
18948;DHT22;9607;51.600;7.558;2024-03-22T09:08:18;15.30;99.90
18948;DHT22;9607;51.600;7.558;2024-03-22T09:10:47;15.40;99.90
18948;DHT22;9607;51.600;7.558;2024-03-22T09:13:12;15.40;99.90
18948;DHT22;9607;51.600;7.558;2024-03-22T09:15:41;15.50;99.90
18948;DHT22;9607;51.600;7.558;2024-03-22T09:18:08;15.50;99.90
18948;DHT22;9607;51.600;7.558;2024-03-22T09:20:35;15.60;99.90
18948;DHT22;9607;51.600;7.558;2024-03-22T09:23:00;15.60;99.90
18948;DHT22;9607;51.600;7.558;2024-03-22T09:25:27;15.70;99.90
18948;DHT22;9607;51.600;7.558;2024-03-22T09:27:53;15.70;99.90
18948;DHT22;9607;51.600;7.558;2024-03-22T09:30:20;15.70;99.90
18948;DHT22;9607;51.600;7.558;2024-03-22T09:32:49;15.70;99.90
18948;DHT22;9607;51.600;7.558;2024-03-22T09:35:18;15.70;99.90
18948;DHT22;9607;51.600;7.558;2024-03-22T09:37:43;15.70;99.90
18948;DHT22;9607;51.600;7.558;2024-03-22T09:40:11;15.70;99.90
18948;DHT22;9607;51.600;7.558;2024-03-22T09:42:38;15.80;99.90
18948;DHT22;9607;51.600;7.558;2024-03-22T09:45:08;15.70;99.90
18948;DHT22;9607;51.600;7.558;2024-03-22T09:47:36;15.70;99.90
18948;DHT22;9607;51.600;7.558;2024-03-22T09:50:06;15.70;99.90
18948;DHT22;9607;51.600;7.558;2024-03-22T09:52:33;15.70;99.90
18948;DHT22;9607;51.600;7.558;2024-03-22T09:55:00;15.70;99.90
18948;DHT22;9607;51.600;7.558;2024-03-22T09:57:29;15.80;99.90
18948;DHT22;9607;51.600;7.558;2024-03-22T09:59:57;15.90;99.90
18948;DHT22;9607;51.600;7.558;2024-03-22T10:02:23;16.00;99.90
18948;DHT22;9607;51.600;7.558;2024-03-22T10:04:52;16.00;99.90
18948;DHT22;9607;51.600;7.558;2024-03-22T10:07:19;16.20;99.90
18948;DHT22;9607;51.600;7.558;2024-03-22T10:09:46;16.10;99.90
18948;DHT22;9607;51.600;7.558;2024-03-22T10:12:12;16.10;99.90
18948;DHT22;9607;51.600;7.558;2024-03-22T10:14:42;16.20;99.90
18948;DHT22;9607;51.600;7.558;2024-03-22T10:17:09;16.30;99.90
18948;DHT22;9607;51.600;7.558;2024-03-22T10:19:36;16.40;99.90
18948;DHT22;9607;51.600;7.558;2024-03-22T10:22:03;16.40;99.90
18948;DHT22;9607;51.600;7.558;2024-03-22T10:24:34;16.40;99.90
18948;DHT22;9607;51.600;7.558;2024-03-22T10:27:00;16.40;99.90
18948;DHT22;9607;51.600;7.558;2024-03-22T10:29:28;16.40;99.90
18948;DHT22;9607;51.600;7.558;2024-03-22T10:31:55;16.40;99.90
18948;DHT22;9607;51.600;7.558;2024-03-22T10:34:22;16.60;99.90
18948;DHT22;9607;51.600;7.558;2024-03-22T10:36:50;16.90;99.90
18948;DHT22;9607;51.600;7.558;2024-03-22T10:39:18;16.90;99.90
18948;DHT22;9607;51.600;7.558;2024-03-22T10:41:46;16.90;99.90
18948;DHT22;9607;51.600;7.558;2024-03-22T10:44:13;16.90;99.90
18948;DHT22;9607;51.600;7.558;2024-03-22T10:46:44;17.00;99.90
18948;DHT22;9607;51.600;7.558;2024-03-22T10:49:15;17.10;99.90
18948;DHT22;9607;51.600;7.558;2024-03-22T10:51:42;17.10;99.90
18948;DHT22;9607;51.600;7.558;2024-03-22T10:54:15;17.20;99.90
18948;DHT22;9607;51.600;7.558;2024-03-22T10:56:43;17.20;99.90
18948;DHT22;9607;51.600;7.558;2024-03-22T10:59:14;17.20;99.90
18948;DHT22;9607;51.600;7.558;2024-03-22T11:01:45;17.20;99.90
18948;DHT22;9607;51.600;7.558;2024-03-22T11:04:16;17.10;99.90
18948;DHT22;9607;51.600;7.558;2024-03-22T11:06:47;17.20;99.90
18948;DHT22;9607;51.600;7.558;2024-03-22T11:09:20;17.40;99.90
18948;DHT22;9607;51.600;7.558;2024-03-22T11:11:47;17.50;99.90
18948;DHT22;9607;51.600;7.558;2024-03-22T11:14:15;17.50;99.90
18948;DHT22;9607;51.600;7.558;2024-03-22T11:16:43;17.70;99.90
18948;DHT22;9607;51.600;7.558;2024-03-22T11:19:10;17.70;99.90
18948;DHT22;9607;51.600;7.558;2024-03-22T11:21:37;17.80;99.90
18948;DHT22;9607;51.600;7.558;2024-03-22T11:24:04;17.80;99.90
18948;DHT22;9607;51.600;7.558;2024-03-22T11:26:31;17.70;99.90
18948;DHT22;9607;51.600;7.558;2024-03-22T11:28:58;17.80;99.90
18948;DHT22;9607;51.600;7.558;2024-03-22T11:31:26;17.90;99.90
18948;DHT22;9607;51.600;7.558;2024-03-22T11:33:54;18.00;99.90
18948;DHT22;9607;51.600;7.558;2024-03-22T11:36:20;18.10;99.90
18948;DHT22;9607;51.600;7.558;2024-03-22T11:38:48;18.30;99.90
18948;DHT22;9607;51.600;7.558;2024-03-22T11:41:16;18.20;99.90
18948;DHT22;9607;51.600;7.558;2024-03-22T11:43:45;18.10;99.90
18948;DHT22;9607;51.600;7.558;2024-03-22T11:46:11;18.10;99.90
18948;DHT22;9607;51.600;7.558;2024-03-22T11:48:41;17.90;99.90
18948;DHT22;9607;51.600;7.558;2024-03-22T11:51:07;17.70;99.90
18948;DHT22;9607;51.600;7.558;2024-03-22T11:53:35;17.60;99.90
18948;DHT22;9607;51.600;7.558;2024-03-22T11:56:01;17.40;99.90
18948;DHT22;9607;51.600;7.558;2024-03-22T11:58:29;17.30;99.90
18948;DHT22;9607;51.600;7.558;2024-03-22T12:00:55;17.10;99.90
18948;DHT22;9607;51.600;7.558;2024-03-22T12:03:23;16.90;99.90
18948;DHT22;9607;51.600;7.558;2024-03-22T12:05:52;16.70;99.90
18948;DHT22;9607;51.600;7.558;2024-03-22T12:08:19;16.60;99.90
18948;DHT22;9607;51.600;7.558;2024-03-22T12:10:44;16.40;99.90
18948;DHT22;9607;51.600;7.558;2024-03-22T12:13:11;16.30;99.90
18948;DHT22;9607;51.600;7.558;2024-03-22T12:15:37;16.10;99.90
18948;DHT22;9607;51.600;7.558;2024-03-22T12:18:04;16.00;99.90
18948;DHT22;9607;51.600;7.558;2024-03-22T12:20:30;15.80;99.90
18948;DHT22;9607;51.600;7.558;2024-03-22T12:22:59;15.70;99.90
18948;DHT22;9607;51.600;7.558;2024-03-22T12:25:25;15.60;99.90
18948;DHT22;9607;51.600;7.558;2024-03-22T12:27:51;15.50;99.90
18948;DHT22;9607;51.600;7.558;2024-03-22T12:30:17;15.40;99.90
18948;DHT22;9607;51.600;7.558;2024-03-22T12:32:44;15.30;99.90
18948;DHT22;9607;51.600;7.558;2024-03-22T12:35:10;15.20;99.90
18948;DHT22;9607;51.600;7.558;2024-03-22T12:37:38;15.00;99.90
18948;DHT22;9607;51.600;7.558;2024-03-22T12:40:07;14.90;99.90
18948;DHT22;9607;51.600;7.558;2024-03-22T12:42:35;14.80;99.90
18948;DHT22;9607;51.600;7.558;2024-03-22T12:45:03;14.70;99.90
18948;DHT22;9607;51.600;7.558;2024-03-22T12:47:29;14.60;99.90
18948;DHT22;9607;51.600;7.558;2024-03-22T12:49:55;14.60;99.90
18948;DHT22;9607;51.600;7.558;2024-03-22T12:52:21;14.50;99.90
18948;DHT22;9607;51.600;7.558;2024-03-22T12:54:48;14.40;99.90
18948;DHT22;9607;51.600;7.558;2024-03-22T12:57:16;14.20;99.90
18948;DHT22;9607;51.600;7.558;2024-03-22T12:59:43;14.10;99.90
18948;DHT22;9607;51.600;7.558;2024-03-22T13:02:10;14.10;99.90
18948;DHT22;9607;51.600;7.558;2024-03-22T13:04:38;14.00;99.90
18948;DHT22;9607;51.600;7.558;2024-03-22T13:07:04;13.90;99.90
18948;DHT22;9607;51.600;7.558;2024-03-22T13:09:31;13.80;99.90
18948;DHT22;9607;51.600;7.558;2024-03-22T13:11:57;13.80;99.90
18948;DHT22;9607;51.600;7.558;2024-03-22T13:14:25;13.70;99.90
18948;DHT22;9607;51.600;7.558;2024-03-22T13:16:53;13.60;99.90
18948;DHT22;9607;51.600;7.558;2024-03-22T13:19:20;13.60;99.90
18948;DHT22;9607;51.600;7.558;2024-03-22T13:21:47;13.60;99.90
18948;DHT22;9607;51.600;7.558;2024-03-22T13:24:14;13.60;99.90
18948;DHT22;9607;51.600;7.558;2024-03-22T13:26:40;13.60;99.90
18948;DHT22;9607;51.600;7.558;2024-03-22T13:29:07;13.60;99.90
18948;DHT22;9607;51.600;7.558;2024-03-22T13:31:34;13.60;99.90
18948;DHT22;9607;51.600;7.558;2024-03-22T13:34:01;13.70;99.90
18948;DHT22;9607;51.600;7.558;2024-03-22T13:36:28;13.80;99.90
18948;DHT22;9607;51.600;7.558;2024-03-22T13:38:58;13.80;99.90
18948;DHT22;9607;51.600;7.558;2024-03-22T13:41:23;13.80;99.90
18948;DHT22;9607;51.600;7.558;2024-03-22T13:43:50;13.70;99.90
18948;DHT22;9607;51.600;7.558;2024-03-22T13:46:16;13.60;99.90
18948;DHT22;9607;51.600;7.558;2024-03-22T13:48:44;13.60;99.90
18948;DHT22;9607;51.600;7.558;2024-03-22T13:51:10;13.50;99.90
18948;DHT22;9607;51.600;7.558;2024-03-22T13:53:37;13.40;99.90
18948;DHT22;9607;51.600;7.558;2024-03-22T13:56:04;13.40;99.90
18948;DHT22;9607;51.600;7.558;2024-03-22T13:58:31;13.30;99.90
18948;DHT22;9607;51.600;7.558;2024-03-22T14:00:57;13.20;99.90
18948;DHT22;9607;51.600;7.558;2024-03-22T14:03:27;13.10;99.90
18948;DHT22;9607;51.600;7.558;2024-03-22T14:05:55;13.10;99.90
18948;DHT22;9607;51.600;7.558;2024-03-22T14:08:22;13.10;99.90
18948;DHT22;9607;51.600;7.558;2024-03-22T14:10:48;13.00;99.90
18948;DHT22;9607;51.600;7.558;2024-03-22T14:13:14;13.00;99.90
18948;DHT22;9607;51.600;7.558;2024-03-22T14:15:41;12.90;99.90
18948;DHT22;9607;51.600;7.558;2024-03-22T14:18:07;12.80;99.90
18948;DHT22;9607;51.600;7.558;2024-03-22T14:20:33;12.70;99.90
18948;DHT22;9607;51.600;7.558;2024-03-22T14:23:01;12.60;99.90
18948;DHT22;9607;51.600;7.558;2024-03-22T14:25:29;12.50;99.90
18948;DHT22;9607;51.600;7.558;2024-03-22T14:27:56;12.30;99.90
18948;DHT22;9607;51.600;7.558;2024-03-22T14:30:22;12.20;99.90
18948;DHT22;9607;51.600;7.558;2024-03-22T14:32:51;12.10;99.90
18948;DHT22;9607;51.600;7.558;2024-03-22T14:35:18;12.10;99.90
18948;DHT22;9607;51.600;7.558;2024-03-22T14:37:46;12.00;99.90
18948;DHT22;9607;51.600;7.558;2024-03-22T14:40:14;11.90;99.90
18948;DHT22;9607;51.600;7.558;2024-03-22T14:42:42;11.80;99.90
18948;DHT22;9607;51.600;7.558;2024-03-22T14:45:09;11.80;99.90
18948;DHT22;9607;51.600;7.558;2024-03-22T14:47:36;11.80;99.90
18948;DHT22;9607;51.600;7.558;2024-03-22T14:50:03;11.80;99.90
18948;DHT22;9607;51.600;7.558;2024-03-22T14:52:29;11.80;99.90
18948;DHT22;9607;51.600;7.558;2024-03-22T14:54:55;11.80;99.90
18948;DHT22;9607;51.600;7.558;2024-03-22T14:57:24;11.80;99.90
18948;DHT22;9607;51.600;7.558;2024-03-22T14:59:50;11.80;99.90
18948;DHT22;9607;51.600;7.558;2024-03-22T15:02:19;11.80;99.90
18948;DHT22;9607;51.600;7.558;2024-03-22T15:04:44;11.70;99.90
18948;DHT22;9607;51.600;7.558;2024-03-22T15:07:11;11.70;99.90
18948;DHT22;9607;51.600;7.558;2024-03-22T15:09:38;11.70;99.90
18948;DHT22;9607;51.600;7.558;2024-03-22T15:12:05;11.60;99.90
18948;DHT22;9607;51.600;7.558;2024-03-22T15:14:33;11.50;99.90
18948;DHT22;9607;51.600;7.558;2024-03-22T15:17:00;11.40;99.90
18948;DHT22;9607;51.600;7.558;2024-03-22T15:19:25;11.30;99.90
18948;DHT22;9607;51.600;7.558;2024-03-22T15:21:53;11.30;99.90
18948;DHT22;9607;51.600;7.558;2024-03-22T15:24:19;11.30;99.90
18948;DHT22;9607;51.600;7.558;2024-03-22T15:26:46;11.20;99.90
18948;DHT22;9607;51.600;7.558;2024-03-22T15:29:12;11.20;99.90
18948;DHT22;9607;51.600;7.558;2024-03-22T15:31:40;11.20;99.90
18948;DHT22;9607;51.600;7.558;2024-03-22T15:34:06;11.10;99.90
18948;DHT22;9607;51.600;7.558;2024-03-22T15:36:34;11.10;99.90
18948;DHT22;9607;51.600;7.558;2024-03-22T15:38:59;11.20;99.90
18948;DHT22;9607;51.600;7.558;2024-03-22T15:41:26;11.20;99.90
18948;DHT22;9607;51.600;7.558;2024-03-22T15:43:52;11.20;99.90